AirNav   Air Wisconsin pilot careers
 
 1581 users online  

43D Odessa Municipal Airport
Odessa, Washington, USA

GOING TO ODESSA?


FAA INFORMATION EFFECTIVE 24 MAY 2018

Location

FAA Identifier: 43D
Lat/Long: 47-20-51.3000N / 118-40-38.0000W
47-20.855000N / 118-40.633333W
47.3475833 / -118.6772222
(estimated)
Elevation: 1737.6 ft. / 530 m (estimated)
Variation: 19E (1985)
From city: 1 mile N of ODESSA, WA
Time zone: UTC -7 (UTC -8 during Standard Time)
Zip code: 99159

Airport Operations

Airport use: Open to the public
Activation date: 04/1948
Control tower: no
ARTCC: SEATTLE CENTER
FSS: SEATTLE FLIGHT SERVICE STATION
NOTAMs facility: SEA (NOTAM-D service available)
Attendance: UNATNDD
Wind indicator: lighted
Segmented circle: no
Lights: SS-SR
Beacon: white-green (lighted land airport)
Operates sunset to sunrise.

Airport Communications

CTAF: 122.9

Nearby radio navigation aids

VOR radial/distance  VOR name  Freq  Var
MWHr055/27.3MOSES LAKE VOR/DME115.0018E
EPHr072/30.4EPHRATA VORTAC112.6021E

Airport Services

Parking: tiedowns
Airframe service: NONE
Powerplant service: NONE
Bottled oxygen: NONE
Bulk oxygen: NONE

Runway Information

Runway 2/20

Dimensions: 3124 x 58 ft. / 952 x 18 m
Surface: asphalt, in good condition
Weight bearing capacity: 
Single wheel: 5.0
Runway edge lights: medium intensity
RUNWAY 2  RUNWAY 20
Latitude: 47-20.658547N47-21.049667N
Longitude: 118-40.879125W118-40.388792W
Elevation: 1723.5 ft.1737.2 ft.
Gradient: 0.4% UP0.3%
Traffic pattern: leftleft
Runway heading: 022 magnetic, 041 true202 magnetic, 221 true
Markings: basic, in good conditionbasic, in good condition
Visual slope indicator: 2-light PAPI on left (3.50 degrees glide path)2-light PAPI on left (3.00 degrees glide path)
Touchdown point: yes, no lightsyes, no lights
Obstructions: none3 ft. brush, 224 ft. from runway, 70 ft. right of centerline, 8:1 slope to clear
GRAVEL RD AT 157 FT & 5 FT FENCE AT 194 FT FM RWY THR.

Airport Ownership and Management from official FAA records

Ownership: Publicly-owned
Owner: CITY OF ODESSA
PO BOX 218
ODESSA, WA 99159
Phone 509-982-2401
Manager: STAN DAMMEL
P.O. BOX 186
ODESSA, WA 99159
Phone 509-660-3024

Airport Operational Statistics

Aircraft based on the field: 12
Single engine airplanes: 11
Multi engine airplanes: 1
    
Aircraft operations: avg 25/day *
66% local general aviation
33% transient general aviation
<1% military
* for 12-month period ending 31 December 2015

Additional Remarks

DEER INVOF OF RUNWAY.
PILOTS BRING OWN ROPES.

Instrument Procedures

There are no published instrument procedures at 43D.

Some nearby airports with instrument procedures:

2S8 - Wilbur Airport (24 nm N)
KMWH - Grant County International Airport (27 nm W)
KEPH - Ephrata Municipal Airport (34 nm W)
KSKA - Fairchild Air Force Base (44 nm E)
KGEG - Spokane International Airport (49 nm E)
 
Loc | Ops | Rwys | IFR | FBO | Links
Com | Nav | Svcs | Stats | Notes

AirNav Hotels Sweepstakes
 
Area around 43D (Odessa Municipal Airport)
 
Road maps at: MapQuest Bing Google
 
Aerial photo
WARNING: Photo may not be current or correct
Aerial photo of 43D (Odessa Municipal Airport)
Taken in March 2007

Do you have a better or more recent aerial photo of Odessa Municipal Airport that you would like to share? If so, please send us your photo.

 
Sectional chart

 
Airport distance calculator
Flying to Odessa Municipal Airport? Find the distance to fly.

From to 43D

Sunrise and sunset
Times for 20-Jun-2018
 Local
(UTC-7)
 Zulu
(UTC)
Morning civil twilight04:1811:18
Sunrise04:5911:59
Sunset20:5403:54
Evening civil twilight21:3404:34

Current date and time
Zulu (UTC)  20-Jun-2018 20:16:37
Local (UTC-7)  20-Jun-2018 13:16:37
 
METAR
KMWH 
27nm W 
201952Z 24008KT 10SM CLR 31/11 A2997 RMK AO2 SLP142 T03060111
KEPH 
34nm W 
201953Z AUTO 19008G15KT 150V220 10SM FEW065 31/11 A2997 RMK AO2 SLP139 T03060111
KSKA 
45nm E 
201958Z AUTO 12006KT 10SM CLR 26/08 A3003 RMK AO2 SLP159 T02610081 $
KGEG 
49nm E 
201953Z VRB04KT 10SM FEW060 FEW100 FEW240 27/08 A3003 RMK AO2 SLP153 T02670078
TAF
KMWH 
27nm W 
201728Z 2018/2118 15004KT P6SM SKC FM202000 21007KT P6SM SCT070 FM210300 VRB05KT P6SM SCT150 PROB30 2106/2111 -SHRA SCT100 BKN150 FM211100 28006KT P6SM VCSH BKN100
NOTAMs
Click for the latest NOTAMs
NOTAMs are issued by the DoD/FAA and will open in a separate window not controlled by AirNav.

 

 
 

Would you like to see your business listed on this page?

 If your business provides an interesting product or service to pilots, flight crews, aircraft, or users of the Odessa Municipal Airport, you should consider listing it here.  To start the listing process, click on the button below
 
Add a business
 

Other Pages about Odessa Municipal Airport

Update a link
 
Copyright © AirNav, LLC. All rights reserved. Privacy Policy  Contact